Time;durP1;ratioP1;P1;durP2;ratioP2;P2;SDS_P1;SDS_P2;PMS_P1;PMS_P2;Temp;Humidity;BMP_temperature;BMP_pressure;BME280_temperature;BME280_humidity;BME280_pressure;Samples;Min_cycle;Max_cycle;Signal;HPM_P1;HPM_P2
2022/09/05 00:02:00;;;;;;;31.60;17.55;;;;;;;14.98;100.00;101388.34;5015487;28;20084;-78
2022/09/05 00:04:46;;;;;;;22.45;16.52;;;;;;;14.94;100.00;101397.16;5033511;28;20048;-78
2022/09/05 00:07:11;;;;;;;29.58;17.63;;;;;;;14.82;100.00;101391.00;5031732;28;20057;-78
2022/09/05 00:09:49;;;;;;;22.23;16.65;;;;;;;14.81;100.00;101387.47;5035215;28;20057;-80
2022/09/05 00:12:16;;;;;;;23.65;18.73;;;;;;;14.70;100.00;101384.88;5033164;28;20071;-77
2022/09/05 00:14:42;;;;;;;26.58;19.63;;;;;;;14.67;100.00;101384.00;5035966;28;20052;-79
2022/09/05 00:17:29;;;;;;;25.30;18.67;;;;;;;14.69;100.00;101392.78;5016914;28;20033;-78
2022/09/05 00:20:04;;;;;;;25.38;18.58;;;;;;;14.63;100.00;101390.16;5046493;28;20079;-78
2022/09/05 00:22:49;;;;;;;38.63;17.92;;;;;;;14.55;100.00;101375.19;5034577;28;20515;-77
2022/09/05 00:25:35;;;;;;;25.08;17.65;;;;;;;13.77;100.00;101224.75;5036366;28;20055;-77
2022/09/05 00:28:39;;;;;;;22.55;16.88;;;;;;;14.61;100.00;101374.31;5033237;28;20052;-77
2022/09/05 00:31:23;;;;;;;32.43;16.70;;;;;;;14.51;100.00;101381.31;5008615;28;20091;-79
2022/09/05 00:34:26;;;;;;;27.85;17.80;;;;;;;14.66;100.00;101380.47;5032800;28;20144;-78
2022/09/05 00:36:53;;;;;;;22.35;16.20;;;;;;;13.94;100.00;101252.00;5014434;28;20084;-79
2022/09/05 00:39:34;;;;;;;27.63;18.45;;;;;;;14.51;100.00;101351.38;5034335;28;20080;-78
2022/09/05 00:42:06;;;;;;;22.50;16.77;;;;;;;14.54;100.00;101370.81;5034969;28;20056;-78
2022/09/05 00:44:37;;;;;;;25.08;17.08;;;;;;;14.26;100.00;101342.63;5048476;28;20454;-79
2022/09/05 00:47:16;;;;;;;25.15;17.67;;;;;;;13.66;100.00;101242.31;5031713;28;20029;-81
2022/09/05 00:50:18;;;;;;;30.40;17.33;;;;;;;14.31;100.00;101357.56;5032273;28;20049;-78
2022/09/05 00:53:08;;;;;;;28.80;17.73;;;;;;;14.26;100.00;101361.97;5019092;28;20099;-77
2022/09/05 00:56:00;;;;;;;27.95;17.48;;;;;;;14.41;100.00;101402.47;5034131;28;20041;-77
2022/09/05 00:58:51;;;;;;;25.98;16.25;;;;;;;14.40;100.00;101376.91;5035016;28;20048;-77
2022/09/05 01:01:35;;;;;;;29.75;17.98;;;;;;;13.41;100.00;101215.91;5033851;28;20055;-77
2022/09/05 01:04:44;;;;;;;27.85;17.35;;;;;;;13.58;100.00;101250.25;5033605;28;20102;-78
2022/09/05 01:07:36;;;;;;;26.63;17.55;;;;;;;14.48;100.00;101388.38;4986183;28;20132;-79
2022/09/05 01:10:27;;;;;;;27.02;15.82;;;;;;;14.38;100.00;101389.28;4990708;28;20076;-77
2022/09/05 01:13:17;;;;;;;20.05;16.58;;;;;;;14.43;100.00;101385.72;5013383;28;20050;-77
2022/09/05 01:16:20;;;;;;;31.25;17.75;;;;;;;14.27;100.00;101387.47;5014723;28;20052;-80
2022/09/05 01:19:00;;;;;;;24.65;18.40;;;;;;;14.23;100.00;101396.28;5013958;28;20128;-80
2022/09/05 01:21:53;;;;;;;23.33;16.38;;;;;;;14.18;100.00;101384.84;5012641;28;21199;-79
2022/09/05 01:25:07;;;;;;;28.65;17.05;;;;;;;14.14;100.00;101389.25;5010618;28;20057;-79
2022/09/05 01:27:50;;;;;;;22.52;16.55;;;;;;;13.35;100.00;101236.16;4954135;28;20057;-79
2022/09/05 01:30:22;;;;;;;28.13;18.13;;;;;;;13.64;100.00;101281.88;5011515;28;20588;-79
2022/09/05 01:33:16;;;;;;;22.08;17.30;;;;;;;14.22;100.00;101381.31;5012367;28;20153;-79
2022/09/05 01:36:05;;;;;;;20.73;15.52;;;;;;;14.12;100.00;101396.28;5010679;28;20580;-77
2022/09/05 01:38:40;;;;;;;26.48;17.25;;;;;;;14.15;100.00;101390.13;5009927;28;20040;-77
2022/09/05 01:41:23;;;;;;;22.58;15.70;;;;;;;14.04;100.00;101405.94;5011733;28;20111;-76
2022/09/05 01:43:57;;;;;;;30.33;16.80;;;;;;;13.72;100.00;101310.94;5013409;28;20096;-76
2022/09/05 01:46:50;;;;;;;19.08;15.40;;;;;;;14.06;100.00;101383.06;4993261;28;20045;-76
2022/09/05 01:49:46;;;;;;;24.17;16.40;;;;;;;13.36;100.00;101227.34;5013934;28;20055;-77
2022/09/05 01:52:43;;;;;;;22.05;16.20;;;;;;;13.45;100.00;101228.25;5017636;28;20059;-78
2022/09/05 01:55:28;;;;;;;30.25;17.52;;;;;;;14.19;100.00;101399.81;4999113;28;20798;-77
2022/09/05 01:58:12;;;;;;;21.90;16.60;;;;;;;14.20;100.00;101383.09;5013990;28;20085;-78
2022/09/05 02:00:50;;;;;;;;;;;;;;;14.23;100.00;101379.56;5018072;28;20115;-74
2022/09/05 02:03:46;;;;;;;26.70;15.90;;;;;;;14.08;100.00;101357.56;5017313;28;19921;-80
2022/09/05 02:06:37;;;;;;;25.83;15.88;;;;;;;14.18;100.00;101381.31;5014002;28;20044;-80
2022/09/05 02:09:12;;;;;;;28.80;16.63;;;;;;;14.20;100.00;101388.38;4997293;28;20382;-78
2022/09/05 02:11:46;;;;;;;23.02;15.02;;;;;;;14.14;100.00;101393.63;5016075;28;20057;-80
2022/09/05 02:14:26;;;;;;;26.00;17.58;;;;;;;13.82;100.00;101333.78;5029194;28;20462;-80
2022/09/05 02:16:56;;;;;;;26.63;17.55;;;;;;;13.74;100.00;101338.16;5019234;28;20065;-81
2022/09/05 02:19:28;;;;;;;27.48;17.92;;;;;;;14.16;100.00;101383.94;5018618;28;20061;-78
2022/09/05 02:21:58;;;;;;;29.27;18.80;;;;;;;14.26;100.00;101384.88;5017178;28;20791;-78
2022/09/05 02:24:43;;;;;;;30.38;18.25;;;;;;;13.85;100.00;101307.41;4994704;28;20449;-78
2022/09/05 02:27:23;;;;;;;25.38;18.70;;;;;;;13.40;100.00;101237.03;5015022;28;20045;-76
2022/09/05 02:30:08;;;;;;;27.80;20.40;;;;;;;14.29;100.00;101390.13;5017478;28;20140;-78
2022/09/05 02:33:11;;;;;;;24.25;17.45;;;;;;;14.30;100.00;101386.59;5015897;28;20144;-77
2022/09/05 02:36:03;;;;;;;29.42;18.90;;;;;;;14.30;100.00;101383.97;5015300;28;20053;-78
2022/09/05 02:38:44;;;;;;;21.35;15.40;;;;;;;14.00;100.00;101358.41;5014977;28;20045;-81
2022/09/05 02:41:39;;;;;;;25.70;18.38;;;;;;;14.09;100.00;101384.81;5019514;28;20494;-79
2022/09/05 02:44:07;;;;;;;22.02;16.23;;;;;;;14.17;100.00;101392.78;5017004;28;20079;-78
2022/09/05 02:47:12;;;;;;;22.60;17.00;;;;;;;14.15;100.00;101391.00;4997029;28;20405;-80
2022/09/05 02:50:16;;;;;;;22.52;16.75;;;;;;;14.16;100.00;101378.66;5019224;28;20485;-77
2022/09/05 02:52:42;;;;;;;24.17;17.20;;;;;;;14.20;100.00;101374.28;4979085;28;20048;-80
2022/09/05 02:55:32;;;;;;;20.63;15.23;;;;;;;14.13;100.00;101368.13;5016232;28;20062;-79
2022/09/05 02:58:34;;;;;;;22.33;14.93;;;;;;;14.25;100.00;101372.53;5015092;28;20144;-79
2022/09/05 03:01:10;;;;;;;23.83;15.70;;;;;;;14.19;100.00;101348.75;4996107;28;20810;-76
2022/09/05 03:03:46;;;;;;;19.17;13.85;;;;;;;13.44;100.00;101241.44;5015718;28;20120;-77
2022/09/05 03:06:39;;;;;;;22.98;15.32;;;;;;;14.32;100.00;101412.13;5026792;28;20108;-77
2022/09/05 03:09:46;;;;;;;20.65;13.45;;;;;;;14.17;100.00;101383.09;5033665;28;20076;-77
2022/09/05 03:12:42;;;;;;;25.05;15.35;;;;;;;14.22;100.00;101383.97;4953345;28;20081;-76
2022/09/05 03:15:38;;;;;;;25.83;16.92;;;;;;;14.05;100.00;101399.78;4968336;28;20129;-77
2022/09/05 03:18:22;;;;;;;19.38;14.40;;;;;;;13.96;100.00;101388.34;5028263;28;20053;-79
2022/09/05 03:20:51;;;;;;;18.13;12.65;;;;;;;13.97;100.00;101390.09;5032174;28;20049;-76
2022/09/05 03:23:44;;;;;;;22.02;15.63;;;;;;;13.88;100.00;101397.13;5035532;28;20040;-77
2022/09/05 03:26:44;;;;;;;21.10;15.70;;;;;;;14.08;100.00;101389.22;5018519;28;20040;-77
2022/09/05 03:29:18;;;;;;;25.60;18.77;;;;;;;14.05;100.00;101406.84;5034803;28;20041;-79
2022/09/05 03:31:50;;;;;;;28.05;16.23;;;;;;;14.05;100.00;101402.44;5033062;28;20045;-76
2022/09/05 03:34:21;;;;;;;25.50;16.48;;;;;;;14.06;100.00;101405.94;5032112;28;20081;-78
2022/09/05 03:36:56;;;;;;;20.85;16.08;;;;;;;14.11;100.00;101420.03;5035039;28;20045;-78
2022/09/05 03:39:56;;;;;;;29.92;16.70;;;;;;;13.25;100.00;101259.81;5036356;28;20069;-80
2022/09/05 03:42:41;;;;;;;24.35;14.88;;;;;;;14.06;100.00;101404.19;5036877;28;20061;-81
2022/09/05 03:45:22;;;;;;;22.42;14.48;;;;;;;14.07;100.00;101403.31;5032260;28;20110;-81
2022/09/05 03:48:13;;;;;;;28.25;17.00;;;;;;;14.03;100.00;101401.53;5036107;28;20444;-80
2022/09/05 03:50:58;;;;;;;23.52;14.98;;;;;;;13.94;100.00;101380.41;5033652;28;20072;-81
2022/09/05 03:53:39;;;;;;;23.02;15.63;;;;;;;14.06;100.00;101411.22;5035604;28;20068;-80
2022/09/05 03:56:43;;;;;;;25.90;16.30;;;;;;;13.83;100.00;101371.59;5035552;28;20025;-80
2022/09/05 03:59:38;;;;;;;27.45;15.45;;;;;;;14.01;100.00;101426.16;5032498;28;20052;-80
2022/09/05 04:02:08;;;;;;;25.42;16.50;;;;;;;13.88;100.00;101401.50;5033942;28;20106;-81
2022/09/05 04:04:36;;;;;;;19.15;13.85;;;;;;;13.93;100.00;101420.88;5030250;28;20053;-82
2022/09/05 04:07:07;;;;;;;25.35;15.43;;;;;;;13.71;100.00;101377.72;5015992;28;20061;-81
2022/09/05 04:09:48;;;;;;;21.27;15.40;;;;;;;13.53;100.00;101331.06;5006449;28;20053;-81
2022/09/05 04:12:41;;;;;;;34.15;16.13;;;;;;;12.98;100.00;101265.00;4985468;28;20049;-81
2022/09/05 04:15:21;;;;;;;19.10;14.40;;;;;;;12.84;100.00;101222.78;4993080;28;20049;-80
2022/09/05 04:18:13;;;;;;;19.40;14.73;;;;;;;13.97;100.00;101406.78;4986623;28;20046;-81
2022/09/05 04:20:48;;;;;;;22.38;16.10;;;;;;;13.28;100.00;101291.47;4929699;28;20058;-80
2022/09/05 04:23:52;;;;;;;23.35;16.83;;;;;;;13.39;100.00;101304.69;5004203;28;20046;-83
2022/09/05 04:27:00;;;;;;;26.50;14.80;;;;;;;14.22;100.00;101435.88;5011483;28;20033;-79
2022/09/05 04:29:43;;;;;;;27.35;15.40;;;;;;;14.39;100.00;101447.34;4957196;28;20115;-80
2022/09/05 04:32:18;;;;;;;19.70;14.37;;;;;;;14.46;100.00;101456.16;5005657;28;20378;-77
2022/09/05 04:35:05;;;;;;;18.17;13.65;;;;;;;14.53;100.00;101457.91;5006074;28;20057;-78
2022/09/05 04:37:48;;;;;;;22.42;15.25;;;;;;;14.48;100.00;101460.56;4988679;28;20092;-79
2022/09/05 04:40:50;;;;;;;18.23;14.70;;;;;;;13.80;100.00;101313.56;5004459;28;20104;-80
2022/09/05 04:43:33;;;;;;;21.73;14.98;;;;;;;14.80;100.00;101475.56;5008766;28;20469;-78
2022/09/05 04:46:06;;;;;;;19.70;12.73;;;;;;;14.63;100.00;101424.50;5008438;28;20880;-79
2022/09/05 04:48:47;;;;;;;20.02;13.27;;;;;;;14.89;99.86;101451.78;5007230;28;20057;-79
2022/09/05 04:51:53;;;;;;;19.88;14.60;;;;;;;14.06;99.35;101332.91;5006876;28;20473;-78
2022/09/05 04:54:41;;;;;;;18.42;12.85;;;;;;;15.02;98.93;101475.56;4990269;28;20054;-79
2022/09/05 04:57:07;;;;;;;22.33;14.27;;;;;;;15.04;99.37;101471.16;5007141;28;20665;-77
2022/09/05 05:00:00;;;;;;;18.48;12.75;;;;;;;15.22;99.38;101473.75;5007490;28;20053;-77
2022/09/05 05:02:35;;;;;;;18.05;14.73;;;;;;;14.65;95.80;101341.72;5009403;28;20025;-77
2022/09/05 05:05:06;;;;;;;19.67;12.40;;;;;;;14.62;95.88;101312.66;5007528;28;20064;-78
2022/09/05 05:07:44;;;;;;;17.40;13.02;;;;;;;15.13;93.90;101318.69;4999395;28;20138;-78
2022/09/05 05:10:19;;;;;;;20.60;11.65;;;;;;;16.79;85.22;101329.84;5031890;28;20045;-78
2022/09/05 05:13:16;;;;;;;16.35;9.45;;;;;;;18.32;79.49;101380.84;5015425;28;20496;-78
2022/09/05 05:16:12;;;;;;;13.50;9.38;;;;;;;17.45;83.89;101470.56;5013572;28;20049;-78
2022/09/05 05:18:53;;;;;;;11.98;8.60;;;;;;;15.81;85.77;101319.22;5031418;28;20176;-77
2022/09/05 05:21:25;;;;;;;10.82;7.50;;;;;;;16.74;87.23;101458.84;5030148;28;20230;-77
2022/09/05 05:24:26;;;;;;;10.80;7.45;;;;;;;16.68;85.88;101465.09;5017601;28;20059;-78
2022/09/05 05:26:56;;;;;;;10.95;7.82;;;;;;;16.56;86.10;101468.72;4970851;28;20070;-77
2022/09/05 05:29:43;;;;;;;9.52;6.85;;;;;;;17.28;83.57;101478.69;5040490;28;20044;-78
2022/09/05 05:32:18;;;;;;;10.20;7.50;;;;;;;16.76;86.00;101457.94;5033215;28;20101;-77
2022/09/05 05:34:48;;;;;;;11.98;8.73;;;;;;;16.44;85.54;101443.19;5038293;28;20151;-76
2022/09/05 05:37:30;;;;;;;10.93;8.25;;;;;;;16.58;85.85;101472.25;5032647;28;20439;-78
2022/09/05 05:40:09;;;;;;;15.18;8.75;;;;;;;15.82;84.74;101299.78;5035759;28;20048;-77
2022/09/05 05:42:38;;;;;;;9.95;6.78;;;;;;;16.85;84.67;101473.78;5016201;28;20052;-77
2022/09/05 05:45:14;;;;;;;11.70;5.78;;;;;;;16.74;83.25;101467.69;5033636;28;20056;-78
2022/09/05 05:48:23;;;;;;;16.05;7.90;;;;;;;16.77;84.68;101443.81;5033697;28;20195;-76
2022/09/05 05:51:05;;;;;;;9.30;6.20;;;;;;;16.91;83.64;101474.66;5020726;28;20768;-76
2022/09/05 05:53:42;;;;;;;12.48;8.38;;;;;;;17.25;82.62;101472.53;5031387;28;20029;-76
2022/09/05 05:56:26;;;;;;;9.23;6.30;;;;;;;17.21;83.56;101476.13;5036755;28;20032;-75
2022/09/05 05:59:06;;;;;;;;;;;;;;;17.14;82.63;101482.38;5035893;28;20041;-75
2022/09/05 06:02:09;;;;;;;15.65;6.78;;;;;;;17.16;82.00;101462.94;5028497;28;19936;-74
2022/09/05 06:05:12;;;;;;;12.57;7.35;;;;;;;17.23;82.75;101471.66;5032799;28;20045;-74
2022/09/05 06:07:44;;;;;;;9.27;6.63;;;;;;;17.51;81.53;101472.25;5015347;28;20057;-70
2022/09/05 06:10:47;;;;;;;17.48;7.63;;;;;;;16.27;82.13;101338.25;5011674;28;20450;-73
2022/09/05 06:13:30;;;;;;;20.10;7.07;;;;;;;17.59;80.65;101480.13;5010145;28;20046;-74
2022/09/05 06:16:33;;;;;;;15.93;7.22;;;;;;;17.89;81.61;101486.88;5009452;28;20061;-72
2022/09/05 06:19:17;;;;;;;11.50;6.30;;;;;;;17.94;80.97;101490.34;5011094;28;20689;-74
2022/09/05 06:21:49;;;;;;;11.98;8.00;;;;;;;17.89;81.13;101501.03;5012423;28;20553;-72
2022/09/05 06:24:43;;;;;;;15.70;7.53;;;;;;;17.85;81.28;101485.16;5012147;28;20053;-74
2022/09/05 06:27:11;;;;;;;24.45;8.02;;;;;;;17.67;80.75;101489.75;5011261;28;20042;-73
2022/09/05 06:29:46;;;;;;;13.45;8.25;;;;;;;17.42;81.71;101443.16;5012524;28;20048;-73
2022/09/05 06:32:59;;;;;;;19.48;8.15;;;;;;;17.50;83.58;101503.22;5009843;28;20041;-72
2022/09/05 06:36:03;;;;;;;11.95;7.45;;;;;;;17.63;83.68;101505.72;4968422;28;20057;-73
2022/09/05 06:38:41;;;;;;;12.13;8.20;;;;;;;16.79;82.29;101351.94;4992735;28;20045;-74
2022/09/05 06:41:34;;;;;;;11.15;7.70;;;;;;;17.81;82.58;101510.84;5014068;28;20025;-73
2022/09/05 06:44:43;;;;;;;19.27;8.23;;;;;;;18.18;83.50;101515.69;5013323;28;20100;-70
2022/09/05 06:47:18;;;;;;;22.25;7.63;;;;;;;18.49;81.00;101518.78;5013650;28;20053;-71
2022/09/05 06:50:12;;;;;;;16.00;9.25;;;;;;;17.90;79.11;101422.22;5012424;28;20029;-70
2022/09/05 06:53:15;;;;;;;10.18;6.43;;;;;;;18.26;80.52;101513.81;5012913;28;20469;-72
2022/09/05 06:56:18;;;;;;;11.02;7.15;;;;;;;19.21;76.81;101523.84;4916876;29;20107;-72
2022/09/05 06:58:58;;;;;;;13.50;7.32;;;;;;;18.70;80.06;101520.22;4964735;28;20041;-73
2022/09/05 07:01:30;;;;;;;10.68;6.10;;;;;;;19.06;74.91;101498.38;5012637;28;20493;-70
2022/09/05 07:04:08;;;;;;;11.43;5.32;;;;;;;18.86;74.42;101501.41;5014716;28;20449;-70
2022/09/05 07:07:09;;;;;;;8.60;5.28;;;;;;;19.86;72.38;101537.72;5021213;28;20061;-70
2022/09/05 07:09:46;;;;;;;10.30;6.40;;;;;;;19.79;73.37;101528.97;5034893;28;20060;-70
2022/09/05 07:12:28;;;;;;;7.65;4.10;;;;;;;19.08;70.41;101532.06;5016660;28;20056;-70
2022/09/05 07:15:01;;;;;;;26.15;12.82;;;;;;;20.38;70.83;101523.25;5032883;28;20060;-70
2022/09/05 07:17:35;;;;;;;25.13;5.32;;;;;;;19.60;70.15;101523.09;5015361;28;20065;-70
2022/09/05 07:20:12;;;;;;;10.43;8.48;;;;;;;19.56;70.91;101510.75;5035540;28;20439;-71
2022/09/05 07:23:16;;;;;;;21.52;14.70;;;;;;;19.60;69.80;101533.75;5031922;28;20041;-71
2022/09/05 07:25:45;;;;;;;;;;;;;;;19.12;69.48;101539.06;4955198;28;20774;-70
2022/09/05 07:28:14;;;;;;;6.68;4.20;;;;;;;18.02;69.26;101347.69;5019126;28;19950;-70
2022/09/05 07:30:52;;;;;;;20.52;15.85;;;;;;;19.49;67.40;101525.09;5032576;28;20043;-70
2022/09/05 07:33:20;;;;;;;26.17;23.42;;;;;;;19.80;68.80;101496.09;5030162;28;20045;-70
2022/09/05 07:35:48;;;;;;;9.27;8.30;;;;;;;19.51;66.46;101541.91;5012588;28;20060;-70
2022/09/05 07:38:19;;;;;;;79.95;71.05;;;;;;;20.92;64.60;101537.13;5032849;28;20147;-72
2022/09/05 07:40:50;;;;;;;44.90;40.50;;;;;;;20.72;63.45;101549.19;5032699;28;20028;-70
2022/09/05 07:43:22;;;;;;;16.30;11.32;;;;;;;19.59;65.53;101429.94;5033781;28;20061;-69
2022/09/05 07:46:14;;;;;;;46.55;41.83;;;;;;;20.18;65.75;101538.81;5032316;28;20049;-70
2022/09/05 07:48:43;;;;;;;12.95;9.70;;;;;;;20.60;62.56;101529.03;5031520;28;20053;-71
2022/09/05 07:51:18;;;;;;;94.05;84.22;;;;;;;20.40;63.15;101393.47;5033124;28;20056;-70
2022/09/05 07:53:46;;;;;;;80.97;72.68;;;;;;;20.72;60.85;101389.13;5032427;28;20137;-70
2022/09/05 07:56:13;;;;;;;28.27;25.27;;;;;;;21.05;62.50;101535.94;5034193;28;20117;-69
2022/09/05 07:58:49;;;;;;;9.85;6.63;;;;;;;20.51;62.19;101534.53;5014426;28;20032;-69
2022/09/05 08:01:17;;;;;;;18.15;15.52;;;;;;;20.56;63.63;101522.00;5031789;28;20059;-72
2022/09/05 08:03:44;;;;;;;10.90;9.07;;;;;;;19.58;62.60;101399.78;5032819;28;20045;-69
2022/09/05 08:06:17;;;;;;;106.15;82.60;;;;;;;20.86;61.21;101427.00;5032881;28;20045;-69
2022/09/05 08:09:12;;;;;;;50.35;38.42;;;;;;;20.86;60.92;101536.38;5015576;28;20045;-72
2022/09/05 08:11:40;;;;;;;10.25;4.25;;;;;;;20.50;59.40;101519.44;5005530;28;20057;-70
2022/09/05 08:14:22;;;;;;;8.20;6.40;;;;;;;19.86;61.34;101424.97;4993396;28;20037;-69
2022/09/05 08:16:47;;;;;;;25.40;19.77;;;;;;;21.18;61.59;101536.47;4992432;28;20069;-71
2022/09/05 08:19:35;;;;;;;18.75;13.55;;;;;;;21.01;60.12;101540.44;5012948;28;20084;-70
2022/09/05 08:22:02;;;;;;;12.63;6.57;;;;;;;21.33;57.55;101538.75;5009439;28;20410;-70
2022/09/05 08:24:38;;;;;;;7.80;4.65;;;;;;;20.52;58.50;101487.41;5014057;28;20204;-69
2022/09/05 08:27:32;;;;;;;13.60;9.75;;;;;;;21.23;59.72;101535.41;5011322;28;20088;-70
2022/09/05 08:30:06;;;;;;;11.20;8.82;;;;;;;20.44;60.01;101394.28;4989924;28;20869;-70
2022/09/05 08:32:53;;;;;;;16.40;9.13;;;;;;;20.93;58.17;101392.13;5012811;28;20079;-70
2022/09/05 08:35:25;;;;;;;6.18;4.10;;;;;;;21.22;57.82;101528.34;5011540;28;20029;-71
2022/09/05 08:37:53;;;;;;;17.38;11.07;;;;;;;21.49;58.07;101414.59;4993900;28;22038;-70
2022/09/05 08:40:24;;;;;;;7.05;5.07;;;;;;;20.99;54.92;101392.84;5012365;28;20153;-70
2022/09/05 08:43:01;;;;;;;10.05;5.05;;;;;;;21.55;58.23;101514.16;4994444;28;20128;-70
2022/09/05 08:46:09;;;;;;;10.45;4.10;;;;;;;21.51;58.42;101524.03;5011920;28;20071;-70
2022/09/05 08:49:01;;;;;;;23.13;5.07;;;;;;;21.51;57.24;101532.06;5012167;28;20504;-70
2022/09/05 08:51:55;;;;;;;7.20;4.95;;;;;;;21.41;55.86;101527.88;5011843;28;20067;-70
2022/09/05 08:54:45;;;;;;;13.10;4.68;;;;;;;20.32;57.31;101446.13;5011766;28;20128;-69
2022/09/05 08:57:45;;;;;;;6.88;4.90;;;;;;;21.56;58.08;101519.44;5010436;28;20053;-70
2022/09/05 09:00:15;;;;;;;5.15;3.40;;;;;;;19.99;55.23;101375.81;5011396;28;20108;-70
2022/09/05 09:02:59;;;;;;;12.05;3.33;;;;;;;21.13;55.29;101525.91;4994036;28;20049;-70
2022/09/05 09:05:49;;;;;;;7.40;4.53;;;;;;;21.57;55.62;101523.88;5013013;28;20033;-70
2022/09/05 09:08:51;;;;;;;8.82;4.03;;;;;;;21.38;53.15;101515.47;5026419;28;20347;-71
2022/09/05 09:11:25;;;;;;;5.60;3.83;;;;;;;21.61;56.68;101504.19;5030822;28;20480;-70
2022/09/05 09:14:25;;;;;;;7.05;4.78;;;;;;;21.23;56.21;101511.41;5030652;28;20060;-70
2022/09/05 09:17:03;;;;;;;5.82;3.90;;;;;;;21.54;55.11;101509.72;5031013;28;20075;-70
2022/09/05 09:19:47;;;;;;;4.78;2.95;;;;;;;22.11;55.72;101501.78;5032147;28;20053;-70
2022/09/05 09:22:41;;;;;;;9.60;4.25;;;;;;;20.99;54.11;101368.81;5011733;28;20104;-70
2022/09/05 09:25:15;;;;;;;5.50;3.25;;;;;;;21.36;56.64;101511.97;5031721;28;20080;-71
2022/09/05 09:28:11;;;;;;;7.82;3.60;;;;;;;22.37;54.60;101507.31;5030625;28;20033;-70
2022/09/05 09:30:43;;;;;;;12.25;4.05;;;;;;;22.39;54.23;101508.13;5031443;28;20060;-70
2022/09/05 09:33:14;;;;;;;7.32;4.30;;;;;;;22.27;54.68;101461.25;5035647;28;20099;-71
2022/09/05 09:35:54;;;;;;;5.80;3.15;;;;;;;22.52;53.56;101490.75;5035328;28;20073;-70
2022/09/05 09:39:02;;;;;;;4.40;3.55;;;;;;;22.52;54.26;101502.34;5030429;28;20239;-71
2022/09/05 09:41:36;;;;;;;7.00;4.38;;;;;;;22.78;53.26;101497.94;5029064;28;20041;-70
2022/09/05 09:44:18;;;;;;;7.20;3.83;;;;;;;22.57;52.99;101501.28;5032658;28;20031;-70
2022/09/05 09:46:46;;;;;;;10.23;4.60;;;;;;;21.69;54.39;101360.56;5031511;28;20049;-71
2022/09/05 09:49:35;;;;;;;5.72;3.33;;;;;;;22.34;52.98;101490.41;5010688;28;20080;-71
2022/09/05 09:52:01;;;;;;;3.65;2.92;;;;;;;22.57;51.23;101495.94;5029278;28;20107;-72
2022/09/05 09:54:39;;;;;;;7.40;3.83;;;;;;;22.28;53.51;101487.06;5028697;28;20509;-70
2022/09/05 09:57:23;;;;;;;14.93;4.65;;;;;;;22.47;53.59;101488.22;5029064;28;20052;-69
2022/09/05 10:00:09;;;;;;;6.65;3.42;;;;;;;22.44;53.80;101444.66;5030277;28;20053;-71
2022/09/05 10:02:35;;;;;;;6.65;3.42;;;;;;;22.77;53.42;101488.13;5028271;28;20041;-70
2022/09/05 10:05:12;;;;;;;6.38;4.20;;;;;;;22.72;52.25;101493.66;5030747;28;20107;-70
2022/09/05 10:08:20;;;;;;;5.43;3.85;;;;;;;21.88;51.12;101424.13;5021413;28;20062;-71
2022/09/05 10:10:54;;;;;;;9.05;4.32;;;;;;;22.11;51.12;101483.09;5002733;28;20073;-70
2022/09/05 10:13:32;;;;;;;4.88;2.58;;;;;;;21.62;51.34;101452.50;5011191;28;20509;-69
2022/09/05 10:16:40;;;;;;;9.40;3.03;;;;;;;21.49;51.81;101346.94;5012043;28;20132;-71
2022/09/05 10:19:39;;;;;;;4.72;2.38;;;;;;;21.65;51.75;101332.19;4993651;28;20054;-70
2022/09/05 10:22:33;;;;;;;6.28;3.05;;;;;;;22.64;50.59;101468.06;5010244;28;20046;-70
2022/09/05 10:25:25;;;;;;;4.90;2.88;;;;;;;21.98;52.93;101318.66;5012728;28;20060;-69
2022/09/05 10:28:13;;;;;;;10.65;2.95;;;;;;;22.16;50.28;101338.56;5012546;28;20660;-71
2022/09/05 10:31:17;;;;;;;8.02;3.03;;;;;;;23.17;48.54;101460.88;5015821;28;20042;-69
2022/09/05 10:33:55;;;;;;;4.43;2.80;;;;;;;23.26;51.02;101450.78;4994310;28;20057;-70
2022/09/05 10:36:22;;;;;;;5.35;2.67;;;;;;;24.13;48.32;101462.69;5012552;28;20719;-69
2022/09/05 10:39:24;;;;;;;4.97;3.10;;;;;;;22.87;50.85;101460.13;4995577;28;20037;-72
2022/09/05 10:42:14;;;;;;;10.07;2.53;;;;;;;23.20;50.96;101456.34;4986436;28;20056;-71
2022/09/05 10:45:03;;;;;;;6.57;3.05;;;;;;;23.79;49.18;101456.00;4996189;28;20053;-70
2022/09/05 10:47:48;;;;;;;6.05;3.35;;;;;;;23.86;48.98;101429.78;5009228;28;20038;-72
2022/09/05 10:50:31;;;;;;;4.70;3.17;;;;;;;24.00;51.26;101443.56;4996196;28;20041;-71
2022/09/05 10:53:38;;;;;;;6.80;3.10;;;;;;;23.94;49.88;101450.00;5012191;28;20156;-72
2022/09/05 10:56:23;;;;;;;7.20;3.30;;;;;;;23.63;49.01;101452.13;4951502;28;20054;-71
2022/09/05 10:59:02;;;;;;;9.25;4.18;;;;;;;23.31;51.26;101428.25;4932150;28;20051;-70
2022/09/05 11:01:51;;;;;;;7.13;2.63;;;;;;;23.84;51.75;101437.06;4981097;28;20053;-70
2022/09/05 11:04:46;;;;;;;5.97;3.33;;;;;;;24.71;49.00;101435.31;4994773;28;20057;-70
2022/09/05 11:07:38;;;;;;;5.85;3.80;;;;;;;24.47;49.01;101432.75;4996606;28;20108;-70
2022/09/05 11:10:19;;;;;;;6.03;2.85;;;;;;;23.83;47.90;101401.31;5008547;28;20133;-72
2022/09/05 11:13:09;;;;;;;6.25;2.80;;;;;;;23.80;49.23;101438.97;5014303;28;20049;-70
2022/09/05 11:15:48;;;;;;;6.53;3.00;;;;;;;22.77;50.28;101392.66;5014624;28;20583;-71
2022/09/05 11:18:32;;;;;;;6.22;3.28;;;;;;;23.66;51.55;101422.50;5012454;28;20049;-70
2022/09/05 11:21:30;;;;;;;13.77;3.58;;;;;;;23.21;52.92;101424.19;5012084;28;20054;-71
2022/09/05 11:24:13;;;;;;;12.43;3.70;;;;;;;23.53;51.23;101428.34;5003748;28;20060;-70
2022/09/05 11:27:00;;;;;;;4.70;3.35;;;;;;;24.19;48.99;101427.59;5013835;28;20041;-72
2022/09/05 11:29:42;;;;;;;6.05;3.50;;;;;;;23.36;50.48;101356.63;5013178;28;20072;-71
2022/09/05 11:32:46;;;;;;;14.05;3.63;;;;;;;23.68;49.85;101408.13;5012752;28;20033;-72
2022/09/05 11:35:15;;;;;;;4.82;2.67;;;;;;;23.78;50.68;101409.53;4970308;28;20517;-72
2022/09/05 11:38:21;;;;;;;5.40;3.50;;;;;;;22.96;49.60;101242.97;5015157;28;20030;-70
2022/09/05 11:40:52;;;;;;;5.10;3.45;;;;;;;23.93;49.11;101393.78;4978561;28;20068;-71
2022/09/05 11:44:12;;;;;;;4.47;2.97;;;;;;;22.62;52.00;101393.22;5012171;28;20176;-69
2022/09/05 11:47:21;;;;;;;5.43;3.65;;;;;;;22.46;51.56;101263.59;4966347;28;20127;-71
2022/09/05 11:50:11;;;;;;;6.05;3.67;;;;;;;22.94;52.88;101389.41;5013307;28;20046;-70
2022/09/05 11:52:46;;;;;;;7.60;4.25;;;;;;;22.44;54.34;101400.06;5009190;28;20061;-70
2022/09/05 11:55:26;;;;;;;16.30;3.97;;;;;;;22.08;52.83;101285.38;5014182;28;20046;-70
2022/09/05 11:58:21;;;;;;;12.27;4.20;;;;;;;22.29;54.33;101390.75;4996107;28;20069;-70
2022/09/05 12:01:03;;;;;;;8.48;3.53;;;;;;;22.46;52.87;101282.34;4983226;28;20072;-70
2022/09/05 12:03:37;;;;;;;6.28;3.65;;;;;;;22.80;50.81;101382.78;5009997;28;20056;-70
2022/09/05 12:06:21;;;;;;;5.90;3.28;;;;;;;22.62;52.05;101377.16;5009805;28;20054;-70
2022/09/05 12:08:53;;;;;;;5.70;3.10;;;;;;;22.55;52.50;101352.44;5010246;28;20045;-69
2022/09/05 12:11:44;;;;;;;5.67;3.07;;;;;;;22.92;52.76;101388.59;5012621;28;20033;-69
2022/09/05 12:14:24;;;;;;;4.35;3.38;;;;;;;23.21;50.47;101377.78;5010825;28;20195;-70
2022/09/05 12:17:17;;;;;;;9.48;3.38;;;;;;;23.20;52.08;101376.00;5010157;28;20161;-69
2022/09/05 12:20:01;;;;;;;4.28;2.63;;;;;;;23.37;50.63;101369.09;5013050;28;20145;-70
2022/09/05 12:22:32;;;;;;;23.08;5.18;;;;;;;22.93;52.66;101366.25;5009913;28;20092;-70
2022/09/05 12:25:09;;;;;;;7.72;4.03;;;;;;;22.63;51.89;101383.38;5009068;28;20270;-70
2022/09/05 12:27:36;;;;;;;5.95;3.80;;;;;;;23.21;52.12;101364.41;4993800;28;20056;-70
2022/09/05 12:30:08;;;;;;;5.55;2.83;;;;;;;23.69;51.52;101358.94;4994132;28;20094;-69
2022/09/05 12:32:48;;;;;;;7.72;4.00;;;;;;;22.29;53.65;101232.13;4997124;28;20052;-69